Friday, January 18, 2019, 3:11 AM EST
Back to Local

KHIE, Mt Washington Regional Airport

Location: Jefferson, NH, United States Lat: 44.367
Local Time: 3:11 AM EST ( 8:11 GMT) Lon: -71.55
Time Zone: US/Eastern Elev: 1072 ft

Show me the last for .
Show Coded

Time T Td Feel RH Dir Speed Gust Alt SLP Vis Weather Sky Remarks
2019-01-18 02:52 7 1 - 75 - Calm - 30.12 30.20 10 SCT090 OVC110 None
2019-01-18 01:52 6 1 - 79 - Calm - 30.12 30.19 10 FEW060 BKN080 OVC110 None
2019-01-18 00:52 5 0 - 79 - Calm - 30.16 30.24 10 SCT090 OVC110 6-hr Min Temp (1am): 1.0°F
6-hr Max Temp (1am): 5.0°F
2019-01-17 23:52 5 0 - 79 - Calm - 30.18 30.26 10 OVC090 24-hr Min Temp (12am): -13.0°F
24-hr Max Temp (12am): 14.0°F
2019-01-17 22:52 5 -1 - 75 - Calm - 30.21 30.29 10 OVC100 None
2019-01-17 21:52 4 -1 - 79 - Calm - 30.23 30.32 10 OVC110 None
2019-01-17 20:52 3 -2 - 78 - Calm - 30.25 30.34 10 BKN120 None
2019-01-17 19:52 2 -2 - 82 - Calm - 30.26 30.36 10 FEW120 None
2019-01-17 18:52 1 -4 - 78 - Calm - 30.26 30.36 10 CLR 6-hr Min Temp (7pm): -0.0°F
6-hr Max Temp (7pm): 14.0°F
2019-01-17 17:52 1 -3 - 82 - Calm - 30.25 30.34 10 CLR None
2019-01-17 16:52 5 -1 - 75 - Calm - 30.26 30.35 10 CLR None
2019-01-17 15:52 12 -9 - 37 - Calm - 30.26 30.35 10 CLR None
2019-01-17 14:52 12 -9 - 37 - Calm - 30.27 30.35 10 CLR None
2019-01-17 13:52 13 -9 - 35 - Calm - 30.29 30.37 10 CLR None
2019-01-17 12:52 10 -10 - 38 - Calm - 30.30 30.38 10 CLR 6-hr Min Temp (1pm): -13.0°F
6-hr Max Temp (1pm): 10.0°F
2019-01-17 11:52 8 -8 - 46 - Calm - 30.34 30.42 10 CLR None
2019-01-17 10:52 6 -10 - 46 - Calm - 30.35 30.44 10 CLR None
2019-01-17 09:52 4 -7 -3 59 Variable 3 - 30.35 30.43 10 CLR None
2019-01-17 08:52 -6 -11 - 78 - Calm - 30.34 30.42 10 CLR None
2019-01-17 07:52 -12 -17 - 77 - Calm - 30.31 30.40 10 CLR None
2019-01-17 06:52 -11 -16 - 77 - Calm - 30.30 30.38 10 CLR 6-hr Min Temp (7am): -11.0°F
6-hr Max Temp (7am): 5.0°F
2019-01-17 05:52 -11 -14 - 85 - Calm - 30.28 30.36 10 CLR None
2019-01-17 04:52 -7 -11 - 82 - Calm - 30.26 30.33 10 CLR None
2019-01-17 03:52 -6 -9 - 86 - Calm - 30.24 30.32 10 CLR None

Support USWX by starting your Amazon purchase here.